createdAt,value
2022-11-30T00:05:02.012Z,54.6
2022-11-30T00:10:20.493Z,53.7
2022-11-30T00:15:38.457Z,54.5
2022-11-30T00:20:56.915Z,53.8
2022-11-30T00:26:15.693Z,53.9
2022-11-30T00:31:34.500Z,54.2
2022-11-30T00:36:52.738Z,53.6
2022-11-30T00:58:05.306Z,54.1
2022-11-30T01:03:23.233Z,53.5
2022-11-30T01:08:41.442Z,53.4
2022-11-30T01:14:00.266Z,53.4
2022-11-30T01:19:18.711Z,53.5
2022-11-30T01:24:37.470Z,53.5
2022-11-30T01:29:55.833Z,53.6
2022-11-30T01:35:14.274Z,54.1
2022-11-30T01:40:32.775Z,53.7
2022-11-30T01:45:50.987Z,54.6
2022-11-30T01:51:09.794Z,54.5
2022-11-30T01:56:27.992Z,54.6
2022-11-30T02:01:46.651Z,53.9
2022-11-30T02:07:05.327Z,53.9
2022-11-30T02:12:24.168Z,53.8
2022-11-30T02:17:42.967Z,54
2022-11-30T02:23:01.425Z,54.5
2022-11-30T02:28:19.670Z,54.5
2022-11-30T02:33:38.462Z,53.8
2022-11-30T02:38:57.068Z,53.6
2022-11-30T02:44:15.304Z,53.9
2022-11-30T02:49:33.533Z,54.7
2022-11-30T02:54:51.432Z,54.5
2022-11-30T03:00:09.919Z,54
2022-11-30T03:05:27.864Z,54
2022-11-30T03:10:46.319Z,54.6
2022-11-30T03:16:05.085Z,53.6
2022-11-30T03:21:07.679Z,54.2
2022-11-30T03:26:26.145Z,54
2022-11-30T03:31:44.644Z,54.3
2022-11-30T03:37:03.468Z,54.4
2022-11-30T03:42:21.660Z,53.8
2022-11-30T03:47:40.149Z,54.2
2022-11-30T03:52:58.362Z,53.7
2022-11-30T03:58:16.825Z,54.4
2022-11-30T04:03:35.296Z,53.6
2022-11-30T04:08:53.568Z,54.3
2022-11-30T04:14:12.013Z,53.7
2022-11-30T04:19:30.528Z,54.5
2022-11-30T04:24:50.337Z,54.2
2022-11-30T04:30:08.569Z,53.4
2022-11-30T04:35:27.045Z,53.4
2022-11-30T04:40:45.819Z,53.4
2022-11-30T04:46:04.020Z,54
2022-11-30T04:51:22.240Z,54.2
2022-11-30T04:56:40.743Z,53.9
2022-11-30T05:01:58.825Z,54.1
2022-11-30T05:07:17.433Z,53.4
2022-11-30T05:12:35.709Z,54.3
2022-11-30T05:17:53.891Z,53.6
2022-11-30T05:23:12.386Z,53.7
2022-11-30T05:28:31.198Z,53.6
2022-11-30T05:33:49.649Z,54.6
2022-11-30T05:39:08.419Z,53
2022-11-30T05:44:26.379Z,52.6
2022-11-30T05:49:44.846Z,52.8
2022-11-30T05:55:02.795Z,53.7
2022-11-30T06:00:21.018Z,53.4
2022-11-30T06:05:39.463Z,52.9
2022-11-30T06:10:57.686Z,53.4
2022-11-30T06:16:16.376Z,53
2022-11-30T06:21:34.638Z,53.9
2022-11-30T06:26:53.392Z,52.9
2022-11-30T06:32:11.632Z,53.2
2022-11-30T06:37:30.387Z,52.8
2022-11-30T06:42:48.588Z,53
2022-11-30T06:48:06.826Z,52.9
2022-11-30T06:53:25.318Z,53
2022-11-30T06:58:43.797Z,52.9
2022-11-30T07:04:02.466Z,52.9
2022-11-30T07:09:20.660Z,53.7
2022-11-30T07:14:39.133Z,53.8
2022-11-30T07:19:57.967Z,52.9
2022-11-30T07:25:16.148Z,53.6
2022-11-30T07:30:34.385Z,52.7
2022-11-30T07:35:53.576Z,52.6
2022-11-30T07:40:57.699Z,52.3
2022-11-30T07:46:16.103Z,52.7
2022-11-30T07:51:34.372Z,52.7
2022-11-30T07:56:52.848Z,52.9
2022-11-30T08:01:56.051Z,53.1
2022-11-30T08:07:14.553Z,52.5
2022-11-30T08:12:32.996Z,53.3
2022-11-30T08:17:51.206Z,53.6
2022-11-30T08:23:09.742Z,53.4
2022-11-30T08:28:27.930Z,54.5
2022-11-30T08:33:46.142Z,48.8
2022-11-30T08:39:04.964Z,49.1
2022-11-30T08:44:23.524Z,48.7
2022-11-30T08:49:42.002Z,48.6
2022-11-30T08:55:00.825Z,49
2022-11-30T09:00:19.299Z,50.6
2022-11-30T09:05:37.755Z,49.8
2022-11-30T09:10:56.292Z,49.4
2022-11-30T09:16:14.802Z,49.6
2022-11-30T09:21:33.282Z,49.8
2022-11-30T09:26:51.508Z,49.8
2022-11-30T09:32:09.977Z,50.6
2022-11-30T09:37:28.744Z,50.7
2022-11-30T09:42:47.277Z,50.7
2022-11-30T09:48:06.029Z,50.7
2022-11-30T09:53:30.364Z,50.9
2022-11-30T09:58:49.069Z,50
2022-11-30T10:04:07.506Z,51
2022-11-30T10:09:26.252Z,50.1
2022-11-30T10:14:46.163Z,51
2022-11-30T10:20:04.783Z,51.4
2022-11-30T10:25:23.016Z,51.9
2022-11-30T10:30:41.866Z,51.2
2022-11-30T10:36:00.108Z,51.9
2022-11-30T10:41:18.561Z,51.3
2022-11-30T10:46:37.261Z,52
2022-11-30T10:51:57.014Z,51.3
2022-11-30T10:57:15.796Z,52
2022-11-30T11:02:34.360Z,51.6
2022-11-30T11:07:52.942Z,51.9
2022-11-30T11:13:11.207Z,51.3
2022-11-30T11:18:29.645Z,52.3
2022-11-30T11:23:48.097Z,52
2022-11-30T11:29:06.591Z,51.3
2022-11-30T11:34:25.114Z,51.9
2022-11-30T11:39:43.838Z,51.2
2022-11-30T11:45:02.362Z,52
2022-11-30T11:51:07.705Z,51.9
2022-11-30T11:56:26.280Z,51.8
2022-11-30T12:01:44.770Z,51.2
2022-11-30T12:07:03.306Z,51.2
2022-11-30T12:12:21.480Z,51.9
2022-11-30T12:17:40.246Z,52
2022-11-30T12:22:58.500Z,51.3
2022-11-30T12:28:16.406Z,51.2
2022-11-30T12:33:35.174Z,51.2
2022-11-30T12:38:53.700Z,51.7
2022-11-30T12:44:12.177Z,51.8
2022-11-30T12:49:30.916Z,51.8
2022-11-30T12:54:49.959Z,50.7
2022-11-30T13:00:08.447Z,51.7
2022-11-30T13:05:27.197Z,51
2022-11-30T13:10:45.998Z,51.7
2022-11-30T13:16:04.663Z,51.1
2022-11-30T13:21:22.952Z,51.2
2022-11-30T13:26:41.482Z,51.4
2022-11-30T13:32:00.134Z,51.7
2022-11-30T13:37:27.586Z,51.8
2022-11-30T13:42:52.588Z,51.5
2022-11-30T13:48:10.495Z,51.1
2022-11-30T13:53:28.960Z,51.8
2022-11-30T13:58:47.610Z,52
2022-11-30T14:04:05.798Z,51.3
2022-11-30T14:09:24.000Z,52
2022-11-30T14:14:46.926Z,52
2022-11-30T14:20:05.476Z,52
2022-11-30T14:25:23.953Z,51.9
2022-11-30T14:30:42.763Z,51.5
2022-11-30T14:36:01.511Z,51.3
2022-11-30T14:41:20.007Z,51.7
2022-11-30T14:46:38.855Z,51.4
2022-11-30T14:51:41.253Z,51.5
2022-11-30T14:57:00.003Z,51
2022-11-30T15:02:18.547Z,51.8
2022-11-30T15:07:21.300Z,51.1
2022-11-30T15:12:39.516Z,51.1
2022-11-30T15:17:57.739Z,51.4
2022-11-30T15:23:15.923Z,51.8
2022-11-30T15:28:34.404Z,51.6
2022-11-30T15:33:53.302Z,50.9
2022-11-30T15:39:12.048Z,51.1
2022-11-30T15:44:30.532Z,51
2022-11-30T15:49:50.137Z,50.6
2022-11-30T15:55:08.460Z,51.5
2022-11-30T16:00:26.375Z,50.7
2022-11-30T16:05:45.188Z,50.7
2022-11-30T16:11:08.566Z,51.3
2022-11-30T16:16:27.191Z,50.7
2022-11-30T16:21:45.227Z,50.7
2022-11-30T16:27:03.688Z,50.6
2022-11-30T16:32:22.451Z,51.3
2022-11-30T16:37:40.961Z,51.4
2022-11-30T16:42:59.412Z,50.6
2022-11-30T16:48:18.208Z,51.2
2022-11-30T16:53:36.960Z,51
2022-11-30T16:58:55.141Z,51.1
2022-11-30T17:04:13.650Z,51.1
2022-11-30T17:09:32.160Z,50.8
2022-11-30T17:14:51.006Z,50.5
2022-11-30T17:20:09.765Z,50.5
2022-11-30T17:25:28.275Z,50.7
2022-11-30T17:30:47.057Z,52.2
2022-11-30T17:36:05.906Z,49.4
2022-11-30T17:41:24.730Z,50.4
2022-11-30T17:46:49.141Z,50
2022-11-30T17:52:08.332Z,52.4
2022-11-30T17:57:26.906Z,51
2022-11-30T18:02:45.365Z,51.8
2022-11-30T18:08:03.952Z,51.7
2022-11-30T18:13:22.470Z,51.6
2022-11-30T18:18:49.145Z,50.8
2022-11-30T18:23:52.017Z,51.3
2022-11-30T18:28:54.661Z,51.8
2022-11-30T18:34:13.375Z,51.8
2022-11-30T18:39:31.881Z,51.6
2022-11-30T18:44:51.334Z,52.2
2022-11-30T18:50:10.071Z,50.9
2022-11-30T18:55:28.556Z,50.9
2022-11-30T19:00:47.387Z,48.5
2022-11-30T19:06:06.105Z,49.6
2022-11-30T19:11:24.044Z,51
2022-11-30T19:16:42.267Z,50.9
2022-11-30T19:22:00.836Z,50.5
2022-11-30T19:27:19.138Z,51.2
2022-11-30T19:32:37.705Z,50.7
2022-11-30T19:37:56.445Z,50.5
2022-11-30T19:43:14.934Z,51.6
2022-11-30T19:48:33.711Z,51.2
2022-11-30T19:53:52.464Z,51.7
2022-11-30T19:59:10.940Z,51.6
2022-11-30T20:04:35.794Z,50.6
2022-11-30T20:09:54.263Z,50.9
2022-11-30T20:15:13.018Z,51.5
2022-11-30T20:20:31.536Z,50.9
2022-11-30T20:25:49.993Z,50.7
2022-11-30T20:31:09.181Z,51
2022-11-30T20:36:27.992Z,51.9
2022-11-30T20:41:46.731Z,52.9
2022-11-30T20:46:49.333Z,53
2022-11-30T20:52:07.949Z,53.2
2022-11-30T20:57:26.407Z,53.6
2022-11-30T21:02:44.737Z,53
2022-11-30T21:08:03.345Z,53
2022-11-30T21:13:21.840Z,52.7
2022-11-30T21:18:40.350Z,52.1
2022-11-30T21:23:58.893Z,52.8
2022-11-30T21:29:17.338Z,52.6
2022-11-30T21:34:36.046Z,52
2022-11-30T21:39:54.801Z,52.3
2022-11-30T21:45:13.228Z,52.4
2022-11-30T21:50:31.701Z,51.7
2022-11-30T21:55:56.310Z,52.4
2022-11-30T22:01:14.208Z,52.2
2022-11-30T22:06:32.975Z,52.3
2022-11-30T22:11:51.476Z,51.9
2022-11-30T22:17:09.665Z,52.2
2022-11-30T22:22:28.163Z,51.5
2022-11-30T22:27:46.678Z,51.5
2022-11-30T22:33:05.141Z,51.6
2022-11-30T22:38:23.637Z,52.3
2022-11-30T22:43:42.176Z,51.4
2022-11-30T22:49:00.636Z,51.7
2022-11-30T22:54:19.173Z,52
2022-11-30T22:59:37.508Z,52.4
2022-11-30T23:04:55.972Z,52.1
2022-11-30T23:10:14.441Z,51.8
2022-11-30T23:15:32.707Z,52.4
2022-11-30T23:20:51.171Z,51.7
2022-11-30T23:26:09.679Z,52.6
2022-11-30T23:31:36.331Z,52
2022-11-30T23:36:55.173Z,52.4
2022-11-30T23:42:13.942Z,52.1
2022-11-30T23:47:31.897Z,52.2
2022-11-30T23:52:50.086Z,52.7
2022-11-30T23:58:08.573Z,51.9
